Andre Almeida

Recruteur - Feirense
4 Avr 2028
Mardi
Processus

Personnalité

Adaptabilité (2) Ambition (1) Controverse (7) Loyauté (19) Pression (16) Professionnalisme (4) Sportivité (13) Tempérament (3)

Profil

Style d'entraînement Démocratique
Diplôme National B
Détermination 11
Gestion des joueurs 10
Motivation 10
Discipline 9
Satisfaction professionnelle
100%
Fatigue
0%
Rôle Recruteur
Salaire 20.0K p/s
Contrat 14.03.2030

Performance

Comportement Bon
Efficacité de l'entraînement
30%
Développement des joueurs
20%
Prévention des blessures
50%
Mise en place tactique
35%

Suivi en cours

63
Joueur Club Statut Capacité Confiance Observé Dernière observation Dernier vote
Rafael Camacho Sporting CP Actif 107 / 106 72% 1 04.01.2028 Approuver
Famana Quizera Leiria Actif 104 / 108 72% 1 23.08.2027 Approuver
Jack Vale Pro Vercelli Actif 99 / 102 40% 4 05.07.2027 -
Joe Ironside Tranmere Rovers Actif 95 / 98 40% 2 05.07.2027 -
Danny Rose Barrow AFC Actif 84 / 83 40% 1 05.07.2027 -
Leonardo Mancuso Mantova Actif 118 / 112 40% 1 30.06.2027 -
Gustavo Torres Atletico Nacional Actif 118 / 126 40% 1 30.06.2027 -
Suleiman Abdullahi ASO Chlef Actif 106 / 107 40% 3 27.06.2027 -
Tom Eaves Northampton Town Actif 90 / 87 40% 1 27.06.2027 -
Harry Smith Barnet Actif 106 / 101 40% 1 26.06.2027 -
Peter Shalulile Mamelodi Sundowns Actif 135 / 124 40% 1 25.06.2027 -
Shokry Naguib Arab Contractors Actif 102 / 103 40% 1 25.06.2027 -
Octavio Rivero Universidad de Chile Actif 122 / 126 40% 1 25.06.2027 -
Mika Lusitânia Lourosa Actif 107 / 109 40% 2 24.06.2027 -
Stephen Odey CS Constantine Actif 102 / 105 40% 1 24.06.2027 -
Samuel Tetteh Ashanti Gold Actif 113 / 103 40% 1 23.06.2027 -
Bruno Cantanhede Giresunspor Actif 102 / 91 40% 1 22.06.2027 -
Rodrigão Penafiel Actif 106 / 111 40% 1 14.06.2027 -
Alfie May Huddersfield Town Actif 109 / 106 40% 1 14.06.2027 -
Claudio Morra Vicenza Actif 111 / 101 40% 1 13.06.2027 -
Franck Boli Wadi Degla Actif 108 / 102 40% 1 13.06.2027 -
Cal Jennings ASO Chlef Actif 101 / 91 40% 1 12.06.2027 -
Conor McAleny Harrogate Town Actif 79 / 78 40% 1 12.06.2027 -
Rui Costa Port Vale Actif 112 / 105 40% 2 11.06.2027 -
Duncan Watmore Rotherham United Actif 109 / 111 40% 1 11.06.2027 -
Ronan Curtis Plymouth Argyle Actif 107 / 106 40% 1 11.06.2027 -
Kieffer Moore Wrexham Actif 117 / 116 40% 1 09.06.2027 -
Rhys Browne Barnet Actif 98 / 99 40% 1 08.06.2027 -
Harvey Saunders Tranmere Rovers Actif 80 / 79 40% 1 07.06.2027 -
Elliott List Northampton Town Actif 91 / 86 40% 1 05.06.2027 -
Michael Cheek Bromley Actif 105 / 96 40% 1 05.06.2027 -
Bryan Róchez Chaves Actif 101 / 107 40% 1 01.06.2027 -
Harry Cornick AFC Wimbledon Actif 103 / 104 40% 1 01.06.2027 -
Paulo Cardoso Sporting CP Actif 98 / 104 40% 1 29.01.2027 -
Carlinhos Portimonense Actif 117 / 128 40% 1 29.01.2027 -
Lazar Mijović Cukaricki Actif 102 / 105 40% 1 29.01.2027 -
William Carvalho Pachuca Actif 140 / 147 40% 2 25.01.2027 -
Monty Batlhabane Polokwane City Actif 103 / 110 40% 1 25.01.2027 -
Costinha Torreense Actif 117 / 114 40% 1 25.01.2027 -
Kiki Silva Chaves Actif 109 / 99 40% 1 23.01.2027 -
Lebohang Maboe Kaizer Chiefs Actif 113 / 111 40% 1 23.01.2027 -
Pablo Fernández Leiria Actif 119 / 117 40% 1 23.01.2027 -
Lucas Villela Zorya Actif 116 / 119 40% 1 22.01.2027 -
Alexis Alégué Zbrojovka Brno Actif 120 / 121 40% 1 22.01.2027 -
Haashim Domingo Maritzburg United Actif 114 / 110 40% 1 19.01.2027 -
Mateo García Atlas Actif 99 / 106 40% 1 19.01.2027 -
Raphael Guzzo Maritimo Actif 113 / 116 40% 3 17.01.2027 -
Lucas Braga Viborg Actif 108 / 111 40% 3 17.01.2027 -
Matt Doherty Sheffield United Actif 135 / 129 40% 1 17.01.2027 -
Davo Penafiel Actif 115 / 103 40% 1 16.01.2027 -
Kiki Afonso AVS Actif 115 / 115 40% 1 16.01.2027 -
Agustín Allione Crewe Alexandra Actif 110 / 109 40% 1 15.01.2027 -
Pule Mmodi Kaizer Chiefs Actif 104 / 99 40% 1 15.01.2027 -
Felipe Cardoso IMT Actif 114 / 106 40% 1 11.01.2027 -
Rafael Barbosa Chaves Actif 104 / 116 40% 1 09.01.2027 -
Mattheus Oliveira Istra 1961 Actif 113 / 131 40% 1 09.01.2027 -
Nduduzo Sibiya Golden Arrows Actif 104 / 100 40% 2 07.01.2027 -
George Honeyman Blackpool Actif 112 / 114 40% 1 02.01.2027 -
Alan Pinheiro OFI Actif 109 / 83 40% 1 16.08.2026 -
Álvaro Zamora Aris Thessaloniki Actif 110 / 105 40% 1 16.08.2026 -
Henrik Bjørdal Valerenga Actif 124 / 116 40% 1 03.08.2026 -
Bruno José Atletico Goianiense Actif 93 / 120 40% 1 03.08.2026 -
Leandro Zabala Colón Actif 92 / 99 40% 1 03.08.2026 -